Time;durP1;ratioP1;P1;durP2;ratioP2;P2;SDS_P1;SDS_P2;PMS_P1;PMS_P2;Temp;Humidity;BMP_temperature;BMP_pressure;BME280_temperature;BME280_humidity;BME280_pressure;Samples;Min_cycle;Max_cycle;Signal;HPM_P1;HPM_P2
2021/12/31 00:01:31;;;;;;;12.40;8.70;;;;;;;3.95;75.96;95398.59;5093738;28;20115;-82
2021/12/31 00:03:57;;;;;;;12.13;8.35;;;;;;;3.33;75.52;95331.25;5111266;28;20405;-81
2021/12/31 00:06:22;;;;;;;11.35;8.75;;;;;;;3.79;75.69;95398.50;5111910;28;20133;-82
2021/12/31 00:08:47;;;;;;;11.98;8.70;;;;;;;3.87;75.99;95395.53;5112623;28;20473;-80
2021/12/31 00:11:13;;;;;;;12.30;9.13;;;;;;;3.94;75.71;95397.75;5112059;28;20031;-81
2021/12/31 00:13:38;;;;;;;10.05;7.82;;;;;;;4.03;75.49;95402.47;5114148;28;20027;-82
2021/12/31 00:16:04;;;;;;;11.75;8.68;;;;;;;3.78;75.32;95368.53;5097200;28;20043;-82
2021/12/31 00:18:29;;;;;;;12.25;8.93;;;;;;;3.94;75.66;95397.75;5117119;28;20497;-82
2021/12/31 00:20:56;;;;;;;11.73;8.48;;;;;;;3.88;75.15;95376.66;5117646;28;20096;-82
2021/12/31 00:23:24;;;;;;;13.30;9.27;;;;;;;3.94;75.13;95392.63;5113488;28;20550;-83
2021/12/31 00:25:50;;;;;;;12.95;9.05;;;;;;;3.88;74.98;95385.22;5097201;28;20027;-82
2021/12/31 00:28:15;;;;;;;12.00;8.98;;;;;;;4.17;74.75;95418.97;5096807;28;20118;-83
2021/12/31 00:30:41;;;;;;;14.50;9.45;;;;;;;3.80;75.31;95395.84;5114971;27;20059;-82
2021/12/31 00:33:08;;;;;;;14.68;10.27;;;;;;;3.88;75.08;95374.09;5106741;27;20061;-82
2021/12/31 00:35:34;;;;;;;15.00;10.60;;;;;;;4.06;74.76;95396.34;5134387;27;20031;-82
2021/12/31 00:37:59;;;;;;;15.55;10.10;;;;;;;4.12;75.47;95405.50;5135195;27;20493;-82
2021/12/31 00:40:26;;;;;;;16.60;9.73;;;;;;;3.96;75.29;95408.81;5134093;27;20103;-82
2021/12/31 00:42:51;;;;;;;20.70;11.80;;;;;;;3.99;75.69;95413.81;5116812;27;20042;-83
2021/12/31 00:45:19;;;;;;;16.33;11.45;;;;;;;3.93;75.38;95415.84;5135004;27;20425;-82
2021/12/31 00:47:45;;;;;;;17.23;11.38;;;;;;;3.77;75.62;95388.28;5116784;27;20024;-82
2021/12/31 00:50:11;;;;;;;18.88;12.38;;;;;;;3.74;75.67;95382.47;5133578;27;20027;-82
2021/12/31 00:52:36;;;;;;;17.48;12.00;;;;;;;4.00;75.45;95423.19;5116389;27;20027;-82
2021/12/31 00:55:04;;;;;;;16.98;11.35;;;;;;;3.86;75.25;95401.59;5134820;27;20145;-82
2021/12/31 00:57:29;;;;;;;17.80;11.07;;;;;;;3.93;75.01;95405.56;5099524;27;20528;-83
2021/12/31 00:59:55;;;;;;;18.00;11.68;;;;;;;3.86;75.53;95389.59;5133688;27;20031;-82
2021/12/31 01:02:23;;;;;;;16.13;11.20;;;;;;;3.88;75.05;95392.91;5116178;27;20072;-82
2021/12/31 01:04:48;;;;;;;16.48;11.30;;;;;;;3.87;75.16;95374.97;5135126;27;20043;-82
2021/12/31 01:07:14;;;;;;;15.82;11.00;;;;;;;3.83;75.60;95382.00;5134716;27;20027;-82
2021/12/31 01:09:39;;;;;;;14.52;10.30;;;;;;;3.93;75.49;95387.56;5133321;27;20035;-82
2021/12/31 01:12:07;;;;;;;16.45;10.85;;;;;;;3.95;75.04;95390.88;5115764;27;20046;-82
2021/12/31 01:14:37;;;;;;;15.88;11.25;;;;;;;3.95;74.88;95391.72;5116162;27;20102;-82
2021/12/31 01:17:06;;;;;;;16.52;11.10;;;;;;;4.06;74.41;95392.94;5134771;27;20040;-82
2021/12/31 01:19:45;;;;;;;17.02;10.85;;;;;;;3.96;74.80;95401.09;5134675;27;20031;-82
2021/12/31 01:22:10;;;;;;;16.05;11.57;;;;;;;4.02;74.74;95394.84;5134460;27;20031;-83
2021/12/31 01:24:36;;;;;;;16.65;10.77;;;;;;;3.66;75.00;95344.28;5114258;27;20023;-83
2021/12/31 01:27:01;;;;;;;16.30;11.15;;;;;;;3.97;74.79;95389.91;5133154;27;20054;-83
2021/12/31 01:29:26;;;;;;;18.15;10.70;;;;;;;3.76;74.34;95352.34;5115774;27;20047;-83
2021/12/31 01:31:55;;;;;;;16.13;10.65;;;;;;;4.11;74.02;95414.13;5115973;27;20027;-83
2021/12/31 01:34:22;;;;;;;13.90;9.80;;;;;;;4.06;74.05;95404.06;5078973;28;20028;-83
2021/12/31 01:36:48;;;;;;;18.55;11.55;;;;;;;4.02;74.40;95415.41;5095518;28;20052;-83
2021/12/31 01:39:13;;;;;;;15.75;10.45;;;;;;;4.09;74.37;95415.94;5112062;28;20183;-82
2021/12/31 01:41:40;;;;;;;13.50;9.55;;;;;;;4.08;74.19;95420.25;5095452;28;20040;-83
2021/12/31 01:44:06;;;;;;;15.13;10.40;;;;;;;4.11;74.34;95420.09;5111979;28;20080;-83
2021/12/31 01:46:33;;;;;;;16.52;11.27;;;;;;;3.99;74.13;95420.69;5113538;28;20027;-83
2021/12/31 01:49:02;;;;;;;15.48;10.18;;;;;;;3.98;74.20;95394.16;5095376;28;20036;-83
2021/12/31 01:51:28;;;;;;;13.30;8.55;;;;;;;3.98;73.56;95409.59;5095448;28;20068;-83
2021/12/31 01:53:54;;;;;;;14.60;10.00;;;;;;;3.94;74.16;95432.94;5094836;28;20095;-82
2021/12/31 01:56:20;;;;;;;13.00;9.68;;;;;;;4.01;73.94;95431.72;5113418;28;20091;-82
2021/12/31 01:58:52;;;;;;;13.80;8.93;;;;;;;3.81;74.43;95428.34;5113024;28;20036;-83
2021/12/31 02:01:18;;;;;;;12.05;8.70;;;;;;;3.77;74.41;95428.56;5095386;28;20032;-83
2021/12/31 02:03:43;;;;;;;11.70;8.60;;;;;;;3.93;74.11;95442.38;5094776;28;20588;-83
2021/12/31 02:06:08;;;;;;;11.57;8.52;;;;;;;3.96;73.58;95446.56;5111888;28;20413;-82
2021/12/31 02:08:35;;;;;;;11.07;8.18;;;;;;;3.97;73.29;95445.63;5111672;28;20032;-82
2021/12/31 02:11:00;;;;;;;11.85;8.23;;;;;;;3.87;73.58;95429.78;5077801;28;20043;-82
2021/12/31 02:13:26;;;;;;;10.52;7.70;;;;;;;3.99;73.30;95443.84;5094156;28;20031;-82
2021/12/31 02:15:51;;;;;;;13.25;9.07;;;;;;;3.95;73.80;95432.84;5077593;28;20127;-82
2021/12/31 02:18:17;;;;;;;13.25;9.90;;;;;;;3.84;73.84;95431.69;5094537;28;20028;-83
2021/12/31 02:20:45;;;;;;;13.73;9.65;;;;;;;3.74;74.16;95441.56;5094646;28;20031;-81
2021/12/31 02:23:23;;;;;;;13.15;9.13;;;;;;;3.75;74.40;95431.19;5112550;28;20119;-82
2021/12/31 02:25:50;;;;;;;11.15;7.90;;;;;;;3.88;74.09;95444.34;5094900;28;20034;-82
2021/12/31 02:28:15;;;;;;;13.32;9.20;;;;;;;3.86;74.25;95440.16;5094275;28;20561;-83
2021/12/31 02:30:41;;;;;;;15.32;9.95;;;;;;;3.81;74.08;95430.91;5094255;28;20059;-83
2021/12/31 02:33:10;;;;;;;14.65;9.60;;;;;;;3.89;74.01;95443.41;5104806;27;20029;-82
2021/12/31 02:35:35;;;;;;;16.15;11.25;;;;;;;3.51;75.21;95438.31;5097653;27;20039;-82
2021/12/31 02:38:02;;;;;;;15.00;10.45;;;;;;;3.61;75.03;95440.47;5114558;27;20031;-82
2021/12/31 02:40:28;;;;;;;15.68;10.07;;;;;;;3.62;75.39;95442.13;5131552;27;20390;-82
2021/12/31 02:42:54;;;;;;;14.57;9.95;;;;;;;3.63;75.07;95430.94;5114558;27;20027;-83
2021/12/31 02:45:27;;;;;;;18.55;10.93;;;;;;;3.62;74.72;95416.41;5097454;27;20066;-82
2021/12/31 02:47:53;;;;;;;20.10;11.55;;;;;;;3.84;74.89;95432.50;5099705;27;20497;-83
2021/12/31 02:50:19;;;;;;;18.98;11.43;;;;;;;3.91;74.59;95439.03;5114403;27;20291;-83
2021/12/31 02:52:44;;;;;;;13.85;9.10;;;;;;;3.92;74.22;95450.16;5097768;27;20031;-83
2021/12/31 02:55:11;;;;;;;14.30;9.70;;;;;;;3.77;74.06;95437.13;5114399;27;20027;-82
2021/12/31 02:57:38;;;;;;;15.43;9.52;;;;;;;3.94;74.06;95464.59;5114205;27;20027;-82
2021/12/31 03:00:05;;;;;;;15.50;9.88;;;;;;;3.85;74.37;95462.47;5097309;28;20428;-83
2021/12/31 03:02:32;;;;;;;12.27;8.38;;;;;;;3.80;74.45;95456.69;5131486;27;20083;-82
2021/12/31 03:05:00;;;;;;;14.40;9.20;;;;;;;3.93;74.18;95474.97;5131240;27;20019;-83
2021/12/31 03:07:26;;;;;;;12.65;8.90;;;;;;;3.91;74.13;95461.34;5114886;28;20031;-83
2021/12/31 03:09:51;;;;;;;12.43;8.52;;;;;;;3.90;73.94;95475.94;5131464;27;20413;-83
2021/12/31 03:12:17;;;;;;;13.88;8.65;;;;;;;3.97;73.58;95479.06;5114149;28;20412;-83
2021/12/31 03:14:43;;;;;;;21.73;12.52;;;;;;;3.93;73.64;95459.56;5131125;28;20050;-83
2021/12/31 03:17:09;;;;;;;31.92;16.05;;;;;;;3.98;73.61;95484.16;5131145;28;20035;-82
2021/12/31 03:19:35;;;;;;;14.10;9.40;;;;;;;3.75;73.06;95481.78;5121041;28;20043;-82
2021/12/31 03:22:00;;;;;;;12.52;8.93;;;;;;;3.87;73.28;95483.78;5127289;27;20526;-82
2021/12/31 03:24:26;;;;;;;12.30;8.55;;;;;;;3.87;73.67;95483.78;5120485;28;20024;-83
2021/12/31 03:26:51;;;;;;;12.05;9.13;;;;;;;3.82;74.05;95493.47;5109796;28;20028;-82
2021/12/31 03:29:16;;;;;;;12.55;9.27;;;;;;;3.83;73.49;95479.69;5125911;28;20036;-82
2021/12/31 03:31:42;;;;;;;13.98;9.30;;;;;;;3.85;73.37;95488.16;5113476;28;20027;-83
2021/12/31 03:34:08;;;;;;;12.48;9.13;;;;;;;3.88;73.39;95488.03;5128102;28;20039;-83
2021/12/31 03:36:33;;;;;;;13.38;8.65;;;;;;;3.89;72.68;95494.00;5129045;28;20033;-82
2021/12/31 03:38:58;;;;;;;12.73;9.05;;;;;;;3.72;72.84;95481.91;5095918;28;20023;-83
2021/12/31 03:41:24;;;;;;;12.13;8.68;;;;;;;3.93;72.72;95498.94;5096879;28;20514;-82
2021/12/31 03:43:50;;;;;;;11.88;8.00;;;;;;;3.96;72.47;95506.50;5110742;28;20447;-82
2021/12/31 03:46:15;;;;;;;13.13;9.43;;;;;;;3.85;72.88;95493.31;5129082;27;20035;-83
2021/12/31 03:48:41;;;;;;;13.45;9.95;;;;;;;3.80;72.76;95493.50;5126098;27;20042;-83
2021/12/31 03:51:06;;;;;;;13.27;9.07;;;;;;;3.84;72.69;95507.03;5103971;27;20039;-82
2021/12/31 03:53:32;;;;;;;16.40;10.85;;;;;;;3.83;72.29;95505.41;5095924;28;20028;-83
2021/12/31 03:55:57;;;;;;;50.33;20.08;;;;;;;3.53;72.19;95482.72;5113604;28;20027;-83
2021/12/31 03:58:22;;;;;;;64.38;23.48;;;;;;;3.73;72.79;95511.84;5109849;27;20035;-83
2021/12/31 04:00:48;;;;;;;26.40;13.85;;;;;;;3.75;72.67;95520.31;5135326;27;20065;-83
2021/12/31 04:03:13;;;;;;;20.10;11.85;;;;;;;3.79;72.27;95521.88;5133877;27;20084;-84
2021/12/31 04:05:40;;;;;;;19.70;12.73;;;;;;;3.75;71.83;95505.72;5116167;27;20108;-83
2021/12/31 04:08:05;;;;;;;17.05;11.57;;;;;;;3.80;72.14;95518.38;5111779;27;20042;-83
2021/12/31 04:10:31;;;;;;;14.02;9.88;;;;;;;3.84;72.63;95514.75;5092774;27;20383;-82
2021/12/31 04:12:57;;;;;;;10.73;8.48;;;;;;;3.54;72.01;95504.97;5109860;27;20393;-83
2021/12/31 04:15:22;;;;;;;11.07;8.07;;;;;;;3.62;72.13;95507.19;5100727;28;20035;-83
2021/12/31 04:17:48;;;;;;;13.98;9.07;;;;;;;3.68;72.19;95503.53;5107178;28;20491;-83
2021/12/31 04:20:24;;;;;;;12.15;7.85;;;;;;;3.73;72.68;95506.69;5119389;27;20499;-83
2021/12/31 04:22:54;;;;;;;10.75;7.10;;;;;;;3.76;72.68;95497.13;5117260;27;20401;-83
2021/12/31 04:25:20;;;;;;;9.48;6.70;;;;;;;3.86;72.03;95502.69;5115063;27;20035;-84
2021/12/31 04:27:46;;;;;;;11.85;8.32;;;;;;;3.78;72.17;95497.06;5133248;27;20034;-83
2021/12/31 04:30:11;;;;;;;10.38;7.57;;;;;;;3.78;71.98;95497.06;5132520;27;20039;-83
2021/12/31 04:32:39;;;;;;;12.23;7.88;;;;;;;3.73;71.68;95499.84;5095317;28;20032;-83
2021/12/31 04:35:05;;;;;;;10.23;7.53;;;;;;;3.71;72.52;95486.22;5095871;28;20501;-83
2021/12/31 04:37:30;;;;;;;11.20;7.60;;;;;;;3.90;72.09;95509.38;5095887;28;20043;-83
2021/12/31 04:39:56;;;;;;;11.80;8.00;;;;;;;3.86;71.52;95505.25;5113776;27;20031;-83
2021/12/31 04:42:21;;;;;;;11.35;8.10;;;;;;;3.63;72.33;95497.75;5132617;27;20455;-83
2021/12/31 04:44:47;;;;;;;11.48;7.97;;;;;;;3.65;72.04;95504.50;5133339;27;20019;-83
2021/12/31 04:47:12;;;;;;;11.15;7.20;;;;;;;3.55;72.31;95503.22;5116138;27;20533;-83
2021/12/31 04:49:38;;;;;;;9.93;7.07;;;;;;;3.44;72.21;95498.56;5120396;27;20477;-83
2021/12/31 04:52:03;;;;;;;11.27;7.05;;;;;;;3.21;72.76;95498.75;5119785;27;20034;-83
2021/12/31 04:54:29;;;;;;;11.15;8.48;;;;;;;3.27;72.78;95514.69;5097859;28;20031;-83
2021/12/31 04:56:56;;;;;;;12.13;7.75;;;;;;;3.21;72.60;95509.84;5110535;28;20452;-83
2021/12/31 04:59:21;;;;;;;11.18;7.97;;;;;;;3.08;72.51;95500.97;5095435;28;20031;-83
2021/12/31 05:01:48;;;;;;;11.15;7.60;;;;;;;2.96;72.91;95510.03;5106049;28;20086;-83
2021/12/31 05:04:14;;;;;;;11.43;7.93;;;;;;;3.00;72.23;95516.69;5111961;28;20497;-83
2021/12/31 05:06:40;;;;;;;11.25;7.63;;;;;;;2.96;72.25;95507.47;5095540;28;20042;-82
2021/12/31 05:09:05;;;;;;;11.65;7.60;;;;;;;2.99;71.76;95515.03;5129019;27;20063;-83
2021/12/31 05:11:31;;;;;;;12.57;8.90;;;;;;;2.90;72.25;95512.88;5094299;27;20036;-84
2021/12/31 05:13:57;;;;;;;13.40;9.02;;;;;;;2.64;72.67;95491.66;5111128;28;20039;-84
2021/12/31 05:16:22;;;;;;;12.82;8.60;;;;;;;2.83;72.29;95527.66;5130678;27;20444;-84
2021/12/31 05:18:47;;;;;;;11.65;8.80;;;;;;;2.63;72.08;95517.41;5131778;27;20088;-82
2021/12/31 05:21:13;;;;;;;10.73;8.05;;;;;;;2.56;72.51;95506.53;5114924;27;20064;-84
2021/12/31 05:23:38;;;;;;;15.70;7.97;;;;;;;2.70;72.61;95529.06;5098156;27;20485;-83
2021/12/31 05:26:04;;;;;;;11.20;7.57;;;;;;;2.43;72.47;95505.38;5133337;27;20412;-83
2021/12/31 05:28:32;;;;;;;11.18;7.95;;;;;;;2.02;73.02;95507.81;5132103;27;20046;-82
2021/12/31 05:30:58;;;;;;;9.98;7.25;;;;;;;2.12;73.82;95528.81;5130925;27;20027;-83
2021/12/31 05:33:23;;;;;;;11.20;8.23;;;;;;;2.17;73.10;95514.94;5098084;27;20042;-84
2021/12/31 05:35:48;;;;;;;15.30;11.52;;;;;;;2.20;73.02;95512.25;5132340;27;20031;-83
2021/12/31 05:38:14;;;;;;;15.50;11.07;;;;;;;2.21;73.75;95526.72;5114878;27;20039;-83
2021/12/31 05:40:39;;;;;;;14.25;11.23;;;;;;;2.14;73.41;95522.72;5106114;28;20043;-83
2021/12/31 05:43:05;;;;;;;11.52;8.48;;;;;;;2.09;73.38;95527.22;5111204;28;20027;-83
2021/12/31 05:45:30;;;;;;;12.20;9.63;;;;;;;1.96;72.85;95536.25;5081887;27;20036;-84
2021/12/31 05:47:56;;;;;;;12.45;9.15;;;;;;;1.64;74.06;95525.44;5094951;28;20035;-83
2021/12/31 05:50:32;;;;;;;14.23;8.57;;;;;;;1.74;73.39;95531.09;5105142;27;20035;-83
2021/12/31 05:52:58;;;;;;;12.40;9.00;;;;;;;1.90;73.13;95539.03;5131628;27;20027;-84
2021/12/31 05:55:23;;;;;;;12.25;7.63;;;;;;;1.80;74.04;95525.72;5133020;27;20066;-84
2021/12/31 05:57:49;;;;;;;12.93;8.98;;;;;;;1.82;74.14;95533.38;5113055;27;20034;-84
2021/12/31 06:00:15;;;;;;;13.73;9.73;;;;;;;1.59;74.13;95536.75;5096343;28;20501;-84
2021/12/31 06:02:40;;;;;;;11.18;8.48;;;;;;;1.58;74.68;95551.28;5092200;28;20563;-84
2021/12/31 06:05:06;;;;;;;11.52;8.95;;;;;;;1.52;74.56;95526.72;5112202;27;20039;-84
2021/12/31 06:07:31;;;;;;;10.52;7.68;;;;;;;1.65;75.54;95557.88;5111541;27;20023;-84
2021/12/31 06:09:57;;;;;;;10.40;7.70;;;;;;;1.60;75.63;95544.41;5104502;28;20027;-84
2021/12/31 06:12:23;;;;;;;13.13;10.20;;;;;;;1.55;74.97;95561.66;5086674;28;20036;-84
2021/12/31 06:14:49;;;;;;;11.65;8.70;;;;;;;1.13;76.22;95559.69;5110250;28;20046;-84
2021/12/31 06:17:17;;;;;;;12.35;8.57;;;;;;;1.35;76.70;95554.66;5110347;28;20134;-83
2021/12/31 06:19:42;;;;;;;11.15;7.38;;;;;;;1.52;76.19;95556.63;5126306;27;20119;-84
2021/12/31 06:22:08;;;;;;;11.68;7.55;;;;;;;1.50;76.56;95563.53;5093649;28;20039;-84
2021/12/31 06:24:33;;;;;;;12.68;8.85;;;;;;;1.55;76.54;95564.22;5089463;27;20183;-84
2021/12/31 06:26:59;;;;;;;11.73;8.98;;;;;;;1.63;76.69;95554.53;5112347;27;20046;-84
2021/12/31 06:29:24;;;;;;;17.70;11.82;;;;;;;1.75;76.66;95558.34;5113171;27;20043;-85
2021/12/31 06:31:50;;;;;;;10.43;7.70;;;;;;;1.87;76.68;95562.22;5131358;27;20035;-84
2021/12/31 06:34:15;;;;;;;9.82;7.28;;;;;;;1.90;76.17;95564.66;5130375;27;20039;-84
2021/12/31 06:36:40;;;;;;;9.88;6.18;;;;;;;1.97;76.22;95569.50;5096417;27;20092;-84
2021/12/31 06:39:06;;;;;;;8.32;6.28;;;;;;;1.95;76.76;95570.44;5130874;27;20401;-84
2021/12/31 06:41:31;;;;;;;8.85;6.38;;;;;;;1.80;77.02;95569.28;5094110;28;20039;-84
2021/12/31 06:43:57;;;;;;;9.05;5.72;;;;;;;1.71;77.27;95579.88;5110254;28;20088;-85
2021/12/31 06:46:22;;;;;;;9.13;6.38;;;;;;;1.75;77.60;95573.72;5093251;28;20493;-84
2021/12/31 06:48:48;;;;;;;9.50;6.32;;;;;;;1.63;77.95;95569.91;5096620;27;20036;-83
2021/12/31 06:51:13;;;;;;;8.15;5.88;;;;;;;1.71;77.70;95590.13;5111363;27;20485;-84
2021/12/31 06:53:39;;;;;;;10.38;7.20;;;;;;;1.67;77.80;95575.72;5097203;27;20110;-84
2021/12/31 06:56:05;;;;;;;10.95;7.20;;;;;;;1.91;77.86;95577.41;5130631;27;20037;-83
2021/12/31 06:58:30;;;;;;;12.82;8.80;;;;;;;2.07;78.15;95584.56;5112832;27;20028;-85
2021/12/31 07:00:55;;;;;;;11.05;7.45;;;;;;;2.08;77.99;95589.59;5131057;27;20038;-84
2021/12/31 07:03:21;;;;;;;11.27;7.60;;;;;;;2.24;77.83;95579.63;5093169;28;20039;-85
2021/12/31 07:05:46;;;;;;;10.13;7.13;;;;;;;2.41;77.77;95581.53;5124394;27;20050;-85
2021/12/31 07:08:13;;;;;;;10.88;7.43;;;;;;;2.52;77.35;95581.94;5140131;27;20031;-85
2021/12/31 07:10:38;;;;;;;15.57;9.00;;;;;;;2.39;78.39;95558.50;5098357;27;20484;-84
2021/12/31 07:13:10;;;;;;;19.55;15.27;;;;;;;2.52;78.61;95556.31;5110839;28;20034;-85
2021/12/31 07:15:44;;;;;;;19.10;13.57;;;;;;;2.73;77.70;95587.97;5113840;28;20521;-80
2021/12/31 07:18:10;;;;;;;18.80;11.57;;;;;;;2.75;78.23;95582.78;5117484;28;20110;-85
2021/12/31 07:20:36;;;;;;;16.30;11.02;;;;;;;2.95;77.70;95589.66;5135082;27;20039;-84
2021/12/31 07:23:09;;;;;;;21.13;11.85;;;;;;;3.03;77.53;95588.44;5134245;27;20112;-84
2021/12/31 07:25:35;;;;;;;16.77;11.80;;;;;;;3.11;77.68;95593.28;5118081;27;20020;-82
2021/12/31 07:28:00;;;;;;;32.45;22.88;;;;;;;3.08;77.19;95585.72;5129920;27;20546;-85
2021/12/31 07:30:26;;;;;;;31.10;20.00;;;;;;;3.16;76.45;95581.09;5104460;28;20048;-84
2021/12/31 07:32:51;;;;;;;14.52;10.18;;;;;;;3.10;74.76;95564.22;5096941;28;20510;-84
2021/12/31 07:35:17;;;;;;;21.85;15.45;;;;;;;3.34;74.95;95575.19;5113167;27;20080;-84
2021/12/31 07:37:42;;;;;;;19.55;13.73;;;;;;;3.45;75.65;95574.72;5114520;27;20026;-84
2021/12/31 07:40:11;;;;;;;12.68;7.93;;;;;;;3.56;74.43;95575.09;5101242;28;20043;-84
2021/12/31 07:42:36;;;;;;;8.55;6.50;;;;;;;3.42;73.68;95554.28;5116125;27;20023;-84
2021/12/31 07:45:02;;;;;;;10.25;7.18;;;;;;;3.54;73.71;95571.78;5123722;27;20122;-84
2021/12/31 07:47:27;;;;;;;9.80;6.75;;;;;;;3.67;72.62;95571.22;5113176;28;20490;-84
2021/12/31 07:49:53;;;;;;;11.73;8.43;;;;;;;3.72;73.24;95582.97;5131020;27;20027;-85
2021/12/31 07:52:18;;;;;;;11.75;6.90;;;;;;;3.73;73.14;95563.25;5133888;27;20035;-83
2021/12/31 07:54:44;;;;;;;24.88;11.85;;;;;;;3.71;72.63;95565.06;5135256;27;20412;-82
2021/12/31 07:57:09;;;;;;;13.70;8.25;;;;;;;3.73;71.71;95560.66;5131015;27;20031;-83
2021/12/31 07:59:35;;;;;;;13.25;7.35;;;;;;;3.84;71.96;95570.47;5126867;27;20385;-83
2021/12/31 08:02:00;;;;;;;9.20;6.32;;;;;;;3.96;72.57;95581.06;5116268;27;20031;-83
2021/12/31 08:04:25;;;;;;;9.75;7.05;;;;;;;4.05;72.90;95576.41;5116283;27;20020;-85
2021/12/31 08:06:51;;;;;;;18.45;10.55;;;;;;;4.13;72.14;95580.31;5127843;27;20394;-85
2021/12/31 08:09:16;;;;;;;12.13;8.25;;;;;;;4.19;72.42;95584.34;5132968;27;20030;-85
2021/12/31 08:11:42;;;;;;;45.08;28.42;;;;;;;4.30;72.30;95591.56;5116620;27;20035;-85
2021/12/31 08:14:07;;;;;;;58.53;35.08;;;;;;;4.25;72.17;95584.06;5097368;27;20059;-85
2021/12/31 08:16:33;;;;;;;43.60;27.08;;;;;;;4.21;72.70;95593.66;5116394;27;20038;-85
2021/12/31 08:18:58;;;;;;;39.47;25.90;;;;;;;4.25;72.94;95596.91;5116248;27;20035;-85
2021/12/31 08:21:23;;;;;;;44.92;29.05;;;;;;;4.31;72.62;95580.38;5134035;27;20042;-85
2021/12/31 08:23:49;;;;;;;35.35;21.08;;;;;;;4.28;71.78;95594.19;5133425;27;20504;-84
2021/12/31 08:26:14;;;;;;;32.70;19.70;;;;;;;4.32;71.76;95584.59;5116727;27;20038;-85
2021/12/31 08:28:40;;;;;;;30.20;21.30;;;;;;;4.43;72.28;95595.22;5133322;27;20038;-85
2021/12/31 08:31:06;;;;;;;25.60;17.58;;;;;;;4.49;71.28;95594.97;5126590;27;20035;-82
2021/12/31 08:33:31;;;;;;;24.90;16.85;;;;;;;3.98;71.05;95596.41;5102604;27;20027;-85
2021/12/31 08:35:57;;;;;;;22.90;16.95;;;;;;;4.16;71.34;95592.19;5133349;27;20035;-85
2021/12/31 08:38:23;;;;;;;24.70;17.75;;;;;;;3.80;72.15;95569.78;5135552;27;20015;-85
2021/12/31 08:40:48;;;;;;;22.63;15.70;;;;;;;4.13;71.76;95588.03;5101121;28;20036;-84
2021/12/31 08:43:14;;;;;;;17.83;11.68;;;;;;;4.22;71.49;95577.31;5105080;28;20028;-85
2021/12/31 08:45:39;;;;;;;16.92;11.93;;;;;;;4.23;71.52;95573.00;5122863;27;20035;-85
2021/12/31 08:48:05;;;;;;;20.15;14.50;;;;;;;4.44;70.81;95568.59;5096354;28;20036;-84
2021/12/31 08:50:30;;;;;;;18.92;15.52;;;;;;;4.50;71.26;95568.31;5119616;27;20023;-85
2021/12/31 08:52:56;;;;;;;16.60;13.15;;;;;;;4.66;70.69;95560.72;5099148;28;20027;-84
2021/12/31 08:55:21;;;;;;;18.95;13.85;;;;;;;4.65;70.81;95556.44;5079163;28;20043;-84
2021/12/31 08:57:47;;;;;;;19.30;14.57;;;;;;;4.83;70.00;95565.88;5111578;28;20020;-84
2021/12/31 09:00:13;;;;;;;23.27;15.90;;;;;;;4.95;70.30;95567.00;5126740;27;20057;-84
2021/12/31 09:02:39;;;;;;;26.30;18.50;;;;;;;4.95;70.17;95556.72;5099043;28;20031;-84
2021/12/31 09:05:06;;;;;;;23.77;16.25;;;;;;;5.16;69.43;95554.84;5079409;28;20040;-84
2021/12/31 09:07:32;;;;;;;19.05;13.60;;;;;;;5.33;67.78;95549.66;5119484;27;20106;-83
2021/12/31 09:09:57;;;;;;;17.50;12.13;;;;;;;5.19;67.94;95544.38;5116574;27;20164;-84
2021/12/31 09:12:23;;;;;;;15.73;11.50;;;;;;;5.42;66.82;95540.63;5133609;27;20031;-84
2021/12/31 09:14:48;;;;;;;16.27;10.85;;;;;;;5.62;66.23;95534.44;5100126;27;20485;-83
2021/12/31 09:17:14;;;;;;;18.65;11.57;;;;;;;5.68;66.51;95543.63;5120698;27;20047;-83
2021/12/31 09:19:39;;;;;;;18.13;11.88;;;;;;;5.67;66.20;95542.78;5126094;27;20096;-84
2021/12/31 09:22:05;;;;;;;16.40;10.98;;;;;;;5.49;66.95;95541.13;5114077;27;20511;-84
2021/12/31 09:24:31;;;;;;;18.52;13.13;;;;;;;5.74;66.83;95546.72;5124019;27;20417;-83
2021/12/31 09:26:56;;;;;;;17.58;12.25;;;;;;;5.73;65.94;95539.88;5095964;28;20028;-83
2021/12/31 09:29:23;;;;;;;17.83;11.98;;;;;;;5.89;65.00;95528.78;5120056;27;20109;-84
2021/12/31 09:31:49;;;;;;;13.35;9.48;;;;;;;5.67;65.78;95531.66;5112029;28;20421;-83
2021/12/31 09:34:15;;;;;;;15.55;10.27;;;;;;;5.53;65.90;95552.97;5084795;28;20024;-84
2021/12/31 09:36:40;;;;;;;14.82;10.52;;;;;;;5.83;65.58;95540.25;5101943;27;20034;-83
2021/12/31 09:39:06;;;;;;;17.30;11.52;;;;;;;5.93;64.96;95544.00;5123372;27;20031;-84
2021/12/31 09:41:31;;;;;;;17.77;11.98;;;;;;;5.54;65.95;95541.75;5113541;28;20509;-85
2021/12/31 09:43:57;;;;;;;18.10;12.20;;;;;;;5.37;67.12;95533.13;5127978;27;20038;-84
2021/12/31 09:46:22;;;;;;;16.95;11.85;;;;;;;5.29;66.87;95527.56;5114924;27;20023;-84
2021/12/31 09:48:48;;;;;;;18.80;11.93;;;;;;;5.57;67.41;95531.28;5115598;27;20034;-83
2021/12/31 09:51:13;;;;;;;15.65;11.20;;;;;;;5.88;65.38;95524.50;5098200;27;20389;-84
2021/12/31 09:53:39;;;;;;;15.52;11.57;;;;;;;6.08;65.38;95526.91;5115312;27;20027;-84
2021/12/31 09:56:04;;;;;;;18.45;11.88;;;;;;;5.82;64.62;95493.00;5115544;27;20044;-84
2021/12/31 09:58:30;;;;;;;16.55;11.38;;;;;;;5.67;65.52;95513.59;5097755;27;20031;-84
2021/12/31 10:00:57;;;;;;;16.75;12.40;;;;;;;5.79;66.22;95512.94;5077611;28;20036;-84
2021/12/31 10:03:28;;;;;;;18.58;11.70;;;;;;;6.04;65.90;95513.34;5082114;28;20023;-84
2021/12/31 10:06:09;;;;;;;17.90;12.07;;;;;;;6.33;65.18;95510.09;5115358;27;20451;-83
2021/12/31 10:08:38;;;;;;;;;;;;;;;6.41;65.32;95502.78;5095218;28;20037;-83
2021/12/31 10:11:05;;;;;;;20.75;14.43;;;;;;;6.55;65.16;95504.59;5111516;28;20420;-83
2021/12/31 10:13:31;;;;;;;19.35;13.02;;;;;;;6.71;62.99;95502.78;5094708;28;20060;-83
2021/12/31 10:15:56;;;;;;;19.33;14.55;;;;;;;6.75;63.36;95482.81;5111568;28;20059;-82
2021/12/31 10:18:32;;;;;;;22.65;14.93;;;;;;;6.95;62.42;95479.91;5094478;28;20061;-82
2021/12/31 10:20:58;;;;;;;19.25;12.40;;;;;;;6.82;62.78;95472.00;5094810;28;20028;-83
2021/12/31 10:23:24;;;;;;;20.60;13.50;;;;;;;6.82;63.60;95484.09;5111126;28;20030;-87
2021/12/31 10:25:49;;;;;;;21.15;13.70;;;;;;;7.00;63.59;95480.47;5111377;28;20505;-87
2021/12/31 10:28:16;;;;;;;21.38;14.55;;;;;;;7.12;63.49;95469.41;5111234;28;20089;-87
2021/12/31 10:30:42;;;;;;;18.33;13.15;;;;;;;7.16;62.50;95475.25;5111135;28;20058;-87
2021/12/31 10:33:08;;;;;;;18.42;13.27;;;;;;;7.23;61.30;95458.44;5093420;28;20092;-87
2021/12/31 10:35:44;;;;;;;17.65;12.93;;;;;;;7.36;62.30;95466.31;5105186;28;20494;-87
2021/12/31 10:38:12;;;;;;;18.10;12.82;;;;;;;7.22;61.14;95456.78;5093969;28;20027;-87
2021/12/31 10:40:41;;;;;;;17.58;12.63;;;;;;;7.19;61.37;95462.13;5094350;28;20546;-86
2021/12/31 10:43:16;;;;;;;16.52;12.32;;;;;;;7.32;61.07;95462.22;5110551;28;20040;-87
2021/12/31 10:46:02;;;;;;;13.95;10.43;;;;;;;7.42;61.28;95453.00;5111912;28;20055;-86
2021/12/31 10:48:48;;;;;;;17.33;11.73;;;;;;;7.35;61.62;95447.38;5093679;28;20039;-86
2021/12/31 10:51:18;;;;;;;17.40;12.35;;;;;;;7.56;61.99;95434.91;5077073;28;20502;-86
2021/12/31 10:53:50;;;;;;;15.43;11.80;;;;;;;7.78;61.68;95441.34;5110873;28;20031;-86
2021/12/31 10:56:16;;;;;;;17.05;12.38;;;;;;;7.93;60.58;95435.19;5110926;28;20038;-86
2021/12/31 10:58:43;;;;;;;18.15;11.90;;;;;;;7.99;59.55;95437.41;5077129;28;20027;-86
2021/12/31 11:01:12;;;;;;;20.08;12.75;;;;;;;7.86;60.01;95436.53;5110859;28;20413;-86
2021/12/31 11:03:38;;;;;;;16.17;11.90;;;;;;;7.90;60.53;95440.56;5094324;28;20023;-86
2021/12/31 11:06:04;;;;;;;16.42;12.63;;;;;;;7.90;60.45;95437.97;5110780;28;20552;-85
2021/12/31 11:08:29;;;;;;;19.83;10.82;;;;;;;8.09;60.29;95434.25;5110767;28;20023;-86
2021/12/31 11:10:56;;;;;;;16.92;11.32;;;;;;;7.94;60.65;95436.88;5093385;28;20043;-85
2021/12/31 11:13:22;;;;;;;15.98;11.43;;;;;;;7.94;59.41;95438.63;5076965;28;20031;-87
2021/12/31 11:15:50;;;;;;;17.23;10.80;;;;;;;8.05;60.21;95436.19;5110827;28;20038;-87
2021/12/31 11:18:19;;;;;;;16.45;10.50;;;;;;;8.17;60.21;95443.19;5110698;28;20028;-86
2021/12/31 11:20:45;;;;;;;19.10;13.10;;;;;;;7.45;61.27;95442.47;5110823;28;20032;-85
2021/12/31 11:23:11;;;;;;;17.95;12.43;;;;;;;7.75;60.64;95444.13;5093320;28;20024;-86
2021/12/31 11:25:36;;;;;;;18.25;13.05;;;;;;;7.85;60.53;95440.03;5093806;28;20028;-86